Time;durP1;ratioP1;P1;durP2;ratioP2;P2;SDS_P1;SDS_P2;PMS_P1;PMS_P2;Temp;Humidity;BMP_temperature;BMP_pressure;BME280_temperature;BME280_humidity;BME280_pressure;Samples;Min_cycle;Max_cycle;Signal;HPM_P1;HPM_P2
2021/12/12 00:01:37;;;;;;;1.20;1.20;;;5.40;99.90;;;;;;5050377;28;20235;-61
2021/12/12 00:04:13;;;;;;;1.40;1.40;;;5.40;99.90;;;;;;5050367;28;20385;-62
2021/12/12 00:06:43;;;;;;;1.30;1.30;;;5.40;99.90;;;;;;5040888;28;20216;-62
2021/12/12 00:09:16;;;;;;;1.30;1.30;;;5.50;99.90;;;;;;5043047;28;20203;-62
2021/12/12 00:11:45;;;;;;;1.20;1.20;;;5.60;99.90;;;;;;5038387;28;20243;-62
2021/12/12 00:14:17;;;;;;;1.30;1.30;;;5.60;99.90;;;;;;5040370;28;20227;-60
2021/12/12 00:16:45;;;;;;;1.50;1.50;;;5.60;99.90;;;;;;5040966;28;20315;-61
2021/12/12 00:19:12;;;;;;;1.33;1.33;;;5.60;99.90;;;;;;5052758;28;20292;-61
2021/12/12 00:21:44;;;;;;;1.30;1.30;;;5.70;99.90;;;;;;5050509;28;20200;-62
2021/12/12 00:24:14;;;;;;;1.57;1.47;;;5.70;99.90;;;;;;5045452;28;20236;-62
2021/12/12 00:26:45;;;;;;;1.20;1.20;;;5.70;99.90;;;;;;5040974;28;20224;-62
2021/12/12 00:29:13;;;;;;;1.30;1.30;;;5.70;99.90;;;;;;5042768;28;20629;-63
2021/12/12 00:31:40;;;;;;;1.30;1.30;;;5.60;99.90;;;;;;5039451;28;20374;-63
2021/12/12 00:34:08;;;;;;;1.30;1.30;;;5.50;99.90;;;;;;5038781;28;20258;-61
2021/12/12 00:36:38;;;;;;;1.23;1.23;;;5.50;99.90;;;;;;5042903;28;20251;-63
2021/12/12 00:39:10;;;;;;;1.40;1.40;;;5.50;99.90;;;;;;5044458;28;20200;-62
2021/12/12 00:41:42;;;;;;;1.40;1.40;;;5.50;99.90;;;;;;5040689;28;20319;-63
2021/12/12 00:44:13;;;;;;;1.30;1.30;;;5.40;99.90;;;;;;5045570;28;20200;-62
2021/12/12 00:46:41;;;;;;;1.53;1.43;;;5.40;99.90;;;;;;5042167;28;20597;-61
2021/12/12 00:49:08;;;;;;;1.70;1.60;;;5.30;99.90;;;;;;5046965;28;20201;-61
2021/12/12 00:51:38;;;;;;;1.80;1.70;;;5.20;99.90;;;;;;5043778;28;20611;-61
2021/12/12 00:54:06;;;;;;;1.63;1.60;;;5.20;99.90;;;;;;5045736;28;20207;-62
2021/12/12 00:56:33;;;;;;;1.60;1.50;;;5.20;99.90;;;;;;5048370;28;20663;-60
2021/12/12 00:59:00;;;;;;;1.50;1.50;;;5.20;99.90;;;;;;5038816;28;20236;-61
2021/12/12 01:01:33;;;;;;;1.43;1.43;;;5.10;99.90;;;;;;5036220;28;20204;-61
2021/12/12 01:04:05;;;;;;;1.50;1.50;;;5.10;99.90;;;;;;5042865;28;20587;-61
2021/12/12 01:06:32;;;;;;;1.40;1.40;;;5.10;99.90;;;;;;5046651;28;20307;-61
2021/12/12 01:09:04;;;;;;;1.40;1.40;;;5.20;99.90;;;;;;5054229;28;20243;-61
2021/12/12 01:11:35;;;;;;;1.40;1.40;;;5.20;99.90;;;;;;5037139;28;20287;-62
2021/12/12 01:14:05;;;;;;;1.40;1.40;;;5.20;99.90;;;;;;5033716;28;20292;-61
2021/12/12 01:16:38;;;;;;;1.33;1.30;;;5.10;99.90;;;;;;5033437;28;20792;-62
2021/12/12 01:19:09;;;;;;;1.23;1.23;;;5.10;99.90;;;;;;5033853;28;20292;-61
2021/12/12 01:21:40;;;;;;;1.47;1.40;;;5.10;99.90;;;;;;5034078;28;20231;-61
2021/12/12 01:24:11;;;;;;;1.30;1.30;;;5.00;99.90;;;;;;5034210;28;20296;-62
2021/12/12 01:26:40;;;;;;;1.80;1.70;;;5.00;99.90;;;;;;5033574;28;20789;-62
2021/12/12 01:29:08;;;;;;;1.23;1.23;;;5.00;99.90;;;;;;5034147;28;20244;-62
2021/12/12 01:31:46;;;;;;;1.50;1.37;;;4.80;99.90;;;;;;5037427;28;20604;-62
2021/12/12 01:34:14;;;;;;;1.43;1.40;;;4.70;99.90;;;;;;5052934;28;20262;-61
2021/12/12 01:36:49;;;;;;;1.10;1.10;;;4.50;99.90;;;;;;5036066;28;20232;-61
2021/12/12 01:39:21;;;;;;;1.20;1.20;;;4.50;99.90;;;;;;5033781;28;20638;-61
2021/12/12 01:41:54;;;;;;;1.47;1.40;;;4.40;99.90;;;;;;5033700;28;20290;-63
2021/12/12 01:44:25;;;;;;;1.30;1.30;;;4.40;99.90;;;;;;5035587;28;20201;-61
2021/12/12 01:47:02;;;;;;;1.33;1.30;;;4.30;99.90;;;;;;5034706;28;20598;-61
2021/12/12 01:49:31;;;;;;;1.47;1.40;;;4.30;99.90;;;;;;5034942;28;20323;-62
2021/12/12 01:51:58;;;;;;;1.60;1.50;;;4.20;99.90;;;;;;5034600;28;20292;-61
2021/12/12 01:54:29;;;;;;;1.40;1.40;;;4.20;99.90;;;;;;5034946;28;20243;-62
2021/12/12 01:56:59;;;;;;;1.77;1.67;;;4.20;99.90;;;;;;5034566;28;20213;-62
2021/12/12 01:59:30;;;;;;;1.60;1.50;;;4.20;99.90;;;;;;5035985;28;20211;-62
2021/12/12 02:02:02;;;;;;;1.37;1.37;;;4.10;99.90;;;;;;5035799;28;20580;-62
2021/12/12 02:04:32;;;;;;;1.70;1.60;;;4.10;99.90;;;;;;5035307;28;20228;-61
2021/12/12 02:07:00;;;;;;;1.70;1.60;;;4.00;99.90;;;;;;5034318;28;20201;-63
2021/12/12 02:09:27;;;;;;;1.60;1.50;;;4.00;99.90;;;;;;5034082;28;20240;-65
2021/12/12 02:11:58;;;;;;;1.27;1.27;;;3.90;99.90;;;;;;5034506;28;20617;-62
2021/12/12 02:14:28;;;;;;;1.30;1.30;;;3.90;99.90;;;;;;5032808;28;20338;-61
2021/12/12 02:17:01;;;;;;;1.20;1.20;;;3.90;99.90;;;;;;5033361;28;20217;-62
2021/12/12 02:19:35;;;;;;;1.60;1.50;;;3.80;99.90;;;;;;5033707;28;20299;-61
2021/12/12 02:22:17;;;;;;;1.50;1.40;;;3.80;99.90;;;;;;5033064;28;20196;-61
2021/12/12 02:35:47;;;;;;;1.50;1.40;;;3.90;99.90;;;;;;5033694;28;20307;-62
2021/12/12 02:38:19;;;;;;;1.30;1.30;;;3.90;99.90;;;;;;5032651;28;20260;-60
2021/12/12 02:40:52;;;;;;;1.40;1.40;;;3.90;99.90;;;;;;5034001;28;20308;-61
2021/12/12 02:43:22;;;;;;;1.60;1.50;;;3.90;99.90;;;;;;5034922;28;20205;-62
2021/12/12 02:45:54;;;;;;;1.70;1.60;;;4.00;99.90;;;;;;5045207;28;20220;-61
2021/12/12 02:48:21;;;;;;;1.67;1.57;;;4.00;99.90;;;;;;5045315;28;20582;-61
2021/12/12 02:50:51;;;;;;;1.50;1.40;;;4.00;99.90;;;;;;5045165;28;20671;-61
2021/12/12 02:53:22;;;;;;;1.60;1.50;;;3.90;99.90;;;;;;5045906;28;20189;-61
2021/12/12 02:55:55;;;;;;;1.40;1.30;;;3.90;99.90;;;;;;5040326;28;20252;-62
2021/12/12 02:58:23;;;;;;;1.37;1.37;;;3.80;99.90;;;;;;5036005;28;20208;-61
2021/12/12 03:00:56;;;;;;;1.30;1.30;;;3.90;99.90;;;;;;5036575;28;20251;-61
2021/12/12 03:03:25;;;;;;;1.40;1.40;;;3.70;99.90;;;;;;5043329;28;20223;-61
2021/12/12 03:05:52;;;;;;;1.30;1.30;;;3.60;99.90;;;;;;5046530;28;20229;-63
2021/12/12 03:08:19;;;;;;;1.37;1.30;;;3.60;99.90;;;;;;5041763;28;20216;-63
2021/12/12 03:10:50;;;;;;;1.33;1.33;;;3.70;99.90;;;;;;5042817;28;20240;-62
2021/12/12 03:13:18;;;;;;;1.30;1.30;;;3.70;99.90;;;;;;5043963;28;20199;-62
2021/12/12 03:15:47;;;;;;;1.60;1.50;;;3.70;99.90;;;;;;5043830;28;20267;-63
2021/12/12 03:18:17;;;;;;;1.60;1.50;;;3.70;99.90;;;;;;5043399;28;20228;-63
2021/12/12 03:20:47;;;;;;;1.30;1.30;;;3.60;99.90;;;;;;5034958;28;20299;-63
2021/12/12 03:23:19;;;;;;;1.20;1.20;;;3.60;99.90;;;;;;5032673;28;20256;-61
2021/12/12 03:25:49;;;;;;;1.70;1.60;;;3.60;99.90;;;;;;5032244;28;20592;-63
2021/12/12 03:28:21;;;;;;;1.33;1.33;;;3.60;99.90;;;;;;5032206;28;20228;-62
2021/12/12 03:30:51;;;;;;;1.27;1.27;;;3.50;99.90;;;;;;5032994;28;20275;-62
2021/12/12 03:33:18;;;;;;;1.20;1.20;;;3.50;99.90;;;;;;5032372;28;20236;-61
2021/12/12 03:35:48;;;;;;;1.23;1.23;;;3.40;99.90;;;;;;5032772;28;20655;-62
2021/12/12 03:38:15;;;;;;;1.40;1.30;;;3.30;99.90;;;;;;5038502;28;20319;-63
2021/12/12 03:40:45;;;;;;;1.47;1.40;;;3.30;99.90;;;;;;5046240;28;20339;-63
2021/12/12 03:43:13;;;;;;;1.20;1.20;;;3.20;99.90;;;;;;5039288;28;20208;-62
2021/12/12 03:45:45;;;;;;;1.20;1.20;;;3.20;99.90;;;;;;5032767;28;20657;-62
2021/12/12 03:48:15;;;;;;;1.33;1.33;;;3.10;99.90;;;;;;5032721;28;20223;-61
2021/12/12 03:50:45;;;;;;;1.60;1.50;;;3.10;99.90;;;;;;5032039;28;20259;-61
2021/12/12 03:53:12;;;;;;;1.60;1.50;;;3.10;99.90;;;;;;5031972;28;20236;-62
2021/12/12 03:55:40;;;;;;;1.60;1.50;;;3.10;99.90;;;;;;5032029;28;20260;-61
2021/12/12 03:58:09;;;;;;;1.40;1.40;;;3.20;99.90;;;;;;5031711;28;20224;-62
2021/12/12 04:00:45;;;;;;;1.20;1.20;;;3.20;99.90;;;;;;5031843;28;20205;-62
2021/12/12 04:03:13;;;;;;;1.53;1.43;;;3.10;99.90;;;;;;5031213;28;20231;-61
2021/12/12 04:05:40;;;;;;;1.53;1.43;;;3.10;99.90;;;;;;5031677;28;20662;-61
2021/12/12 04:08:07;;;;;;;1.70;1.60;;;3.00;99.90;;;;;;5031517;28;20287;-61
2021/12/12 04:10:34;;;;;;;1.40;1.30;;;3.00;99.90;;;;;;5031415;28;20214;-61
2021/12/12 04:13:02;;;;;;;1.40;1.40;;;2.90;99.90;;;;;;5031344;28;20216;-61
2021/12/12 04:15:29;;;;;;;1.30;1.30;;;2.80;99.90;;;;;;5031236;28;20315;-61
2021/12/12 04:17:57;;;;;;;1.43;1.40;;;2.70;99.90;;;;;;5031871;28;20311;-63
2021/12/12 04:20:29;;;;;;;1.33;1.30;;;2.70;99.90;;;;;;5032362;28;20291;-61
2021/12/12 04:22:56;;;;;;;1.47;1.40;;;2.60;99.90;;;;;;5035784;28;20228;-61
2021/12/12 04:25:23;;;;;;;1.50;1.40;;;2.60;99.90;;;;;;5035649;28;20239;-60
2021/12/12 04:27:51;;;;;;;1.20;1.20;;;2.60;99.90;;;;;;5032499;28;20235;-63
2021/12/12 04:30:18;;;;;;;1.20;1.20;;;2.60;99.90;;;;;;5032418;28;20204;-62
2021/12/12 04:32:47;;;;;;;1.33;1.33;;;2.60;99.90;;;;;;5041741;28;20208;-61
2021/12/12 04:35:19;;;;;;;1.27;1.20;;;2.60;99.90;;;;;;5043950;28;20229;-63
2021/12/12 04:37:47;;;;;;;1.20;1.20;;;2.70;99.90;;;;;;5041686;28;20216;-62
2021/12/12 04:40:17;;;;;;;1.27;1.27;;;2.60;99.90;;;;;;5059996;28;20273;-61
2021/12/12 04:42:45;;;;;;;1.37;1.30;;;2.50;99.90;;;;;;5057125;28;20298;-62
2021/12/12 04:45:29;;;;;;;1.17;1.17;;;2.50;99.90;;;;;;5051500;28;20220;-61
2021/12/12 04:50:53;;;;;;;1.40;1.30;;;2.50;99.90;;;;;;5051943;28;20819;-62
2021/12/12 04:53:26;;;;;;;1.30;1.30;;;2.40;99.90;;;;;;5051989;28;20259;-62
2021/12/12 04:55:57;;;;;;;1.33;1.30;;;2.40;99.90;;;;;;5051477;28;20302;-63
2021/12/12 04:58:32;;;;;;;1.27;1.27;;;2.40;99.90;;;;;;5051214;28;20254;-61
2021/12/12 05:01:04;;;;;;;1.20;1.20;;;2.40;99.90;;;;;;5051905;28;20208;-62
2021/12/12 05:03:38;;;;;;;1.43;1.40;;;2.40;99.90;;;;;;5068752;28;20215;-62
2021/12/12 05:06:12;;;;;;;1.30;1.30;;;2.40;99.90;;;;;;5071707;28;20228;-61
2021/12/12 05:08:44;;;;;;;1.40;1.30;;;2.40;99.90;;;;;;5069227;28;20204;-62
2021/12/12 05:11:19;;;;;;;1.40;1.30;;;2.30;99.90;;;;;;5065488;28;20193;-62
2021/12/12 05:13:51;;;;;;;1.20;1.20;;;2.30;99.90;;;;;;5054641;28;20189;-62
2021/12/12 05:16:24;;;;;;;1.50;1.40;;;2.30;99.90;;;;;;5061288;28;20251;-63
2021/12/12 05:18:53;;;;;;;1.40;1.30;;;2.30;99.90;;;;;;5056706;28;20704;-61
2021/12/12 05:21:28;;;;;;;1.10;1.10;;;2.40;99.90;;;;;;5056558;28;20223;-61
2021/12/12 05:23:59;;;;;;;1.10;1.10;;;2.40;99.90;;;;;;5055903;28;20199;-60
2021/12/12 05:26:29;;;;;;;1.33;1.30;;;2.30;99.90;;;;;;5080155;22;20323;-68
2021/12/12 05:29:01;;;;;;;1.00;1.00;;;2.30;99.90;;;;;;5046650;28;20240;-66
2021/12/12 05:31:30;;;;;;;1.30;1.30;;;2.40;99.90;;;;;;5037493;28;20192;-67
2021/12/12 05:33:57;;;;;;;1.17;1.17;;;2.40;99.90;;;;;;5037693;28;20205;-66
2021/12/12 05:36:28;;;;;;;1.17;1.17;;;2.50;99.90;;;;;;5035551;28;20666;-67
2021/12/12 05:38:57;;;;;;;1.10;1.10;;;2.60;99.90;;;;;;5035473;28;20704;-67
2021/12/12 05:41:24;;;;;;;1.10;1.10;;;2.60;99.90;;;;;;5037148;28;20252;-67
2021/12/12 05:43:56;;;;;;;1.40;1.30;;;2.70;99.90;;;;;;5036020;28;20223;-67
2021/12/12 05:46:25;;;;;;;1.20;1.20;;;2.70;99.90;;;;;;5045414;28;20248;-66
2021/12/12 05:48:53;;;;;;;1.20;1.20;;;2.70;99.90;;;;;;5050969;28;20296;-65
2021/12/12 05:51:21;;;;;;;1.03;1.03;;;2.70;99.90;;;;;;5042227;28;20206;-66
2021/12/12 05:53:51;;;;;;;1.10;1.10;;;2.70;99.90;;;;;;5046520;28;20244;-65
2021/12/12 05:56:31;;;;;;;1.03;1.03;;;2.80;99.90;;;;;;5046860;28;20260;-66
2021/12/12 05:58:59;;;;;;;1.30;1.30;;;2.80;99.90;;;;;;5047843;28;20479;-67
2021/12/12 06:01:29;;;;;;;1.70;1.60;;;2.80;99.90;;;;;;5048760;28;20204;-65
2021/12/12 06:03:56;;;;;;;1.60;1.50;;;2.90;99.90;;;;;;5048059;28;20227;-66
2021/12/12 06:06:26;;;;;;;1.50;1.40;;;2.80;99.90;;;;;;5036924;28;20303;-67
2021/12/12 06:08:58;;;;;;;1.50;1.40;;;2.80;99.90;;;;;;5034395;28;20260;-67
2021/12/12 06:11:27;;;;;;;1.20;1.20;;;2.60;99.90;;;;;;5034590;28;20201;-65
2021/12/12 06:13:55;;;;;;;1.40;1.40;;;2.70;99.90;;;;;;5034566;28;20208;-65
2021/12/12 06:16:23;;;;;;;1.60;1.50;;;2.70;99.90;;;;;;5040087;28;20728;-66
2021/12/12 06:18:54;;;;;;;1.70;1.60;;;2.70;99.90;;;;;;5040896;28;20776;-66
2021/12/12 06:21:22;;;;;;;1.40;1.40;;;2.80;99.90;;;;;;5033891;28;20279;-66
2021/12/12 06:23:49;;;;;;;1.40;1.40;;;2.80;99.90;;;;;;5033722;28;20238;-65
2021/12/12 06:26:19;;;;;;;1.40;1.30;;;2.80;99.90;;;;;;5032953;28;20236;-67
2021/12/12 06:28:46;;;;;;;0.97;0.97;;;2.80;99.90;;;;;;5033589;28;20196;-67
2021/12/12 06:31:13;;;;;;;1.20;1.20;;;2.80;99.90;;;;;;5033592;28;20642;-65
2021/12/12 06:33:40;;;;;;;1.27;1.27;;;2.90;99.90;;;;;;5033188;28;20302;-66
2021/12/12 06:36:09;;;;;;;1.33;1.33;;;2.90;99.90;;;;;;5033283;28;20311;-67
2021/12/12 06:38:37;;;;;;;1.10;1.10;;;3.00;99.90;;;;;;5033272;28;20663;-66
2021/12/12 06:41:05;;;;;;;1.27;1.27;;;3.00;99.90;;;;;;5033330;28;20204;-65
2021/12/12 06:43:34;;;;;;;1.20;1.20;;;3.10;99.90;;;;;;5033380;28;20239;-64
2021/12/12 06:46:01;;;;;;;1.13;1.10;;;3.10;99.90;;;;;;5032987;28;20331;-67
2021/12/12 06:48:29;;;;;;;1.03;1.03;;;3.10;99.90;;;;;;5032887;28;20284;-65
2021/12/12 06:50:57;;;;;;;1.10;1.10;;;3.10;99.90;;;;;;5033079;28;20210;-68
2021/12/12 06:53:26;;;;;;;1.13;1.13;;;3.10;99.90;;;;;;5032924;28;20690;-64
2021/12/12 06:55:54;;;;;;;1.03;1.03;;;3.20;99.90;;;;;;5032765;28;20220;-66
2021/12/12 06:58:22;;;;;;;1.20;1.20;;;3.20;99.90;;;;;;5032933;28;20687;-66
2021/12/12 07:00:56;;;;;;;1.10;1.10;;;3.20;99.90;;;;;;5032512;28;20830;-67
2021/12/12 07:03:23;;;;;;;1.20;1.20;;;3.20;99.90;;;;;;5033192;28;20199;-67
2021/12/12 07:05:50;;;;;;;1.00;1.00;;;3.30;99.90;;;;;;5032605;28;20374;-64
2021/12/12 07:08:20;;;;;;;1.00;1.00;;;3.30;99.90;;;;;;5032438;28;20205;-66
2021/12/12 07:10:47;;;;;;;1.00;1.00;;;3.30;99.90;;;;;;5035721;28;20778;-66
2021/12/12 07:13:16;;;;;;;1.00;1.00;;;3.30;99.90;;;;;;5033685;28;20295;-68
2021/12/12 07:15:46;;;;;;;1.13;1.10;;;3.30;99.90;;;;;;5032500;28;20259;-66
2021/12/12 07:18:17;;;;;;;1.10;1.10;;;3.30;99.90;;;;;;5032609;28;20295;-67
2021/12/12 07:20:47;;;;;;;1.00;1.00;;;3.30;99.90;;;;;;5032738;28;20295;-66
2021/12/12 07:23:15;;;;;;;1.10;1.10;;;3.30;99.90;;;;;;5033015;28;20283;-66
2021/12/12 07:25:44;;;;;;;1.33;1.23;;;3.30;99.90;;;;;;5032606;28;20748;-67
2021/12/12 07:28:12;;;;;;;1.33;1.23;;;3.30;99.90;;;;;;5032716;28;20212;-66
2021/12/12 07:30:39;;;;;;;1.23;1.23;;;3.30;99.90;;;;;;5030404;28;20219;-65
2021/12/12 07:33:06;;;;;;;1.27;1.27;;;3.30;99.90;;;;;;5031445;28;20641;-66
2021/12/12 07:35:36;;;;;;;1.20;1.20;;;3.30;99.90;;;;;;5032823;28;20311;-65
2021/12/12 07:38:07;;;;;;;1.90;1.80;;;3.30;99.90;;;;;;5032456;28;20641;-68
2021/12/12 07:40:35;;;;;;;1.40;1.30;;;3.30;99.90;;;;;;5041641;28;20204;-66
2021/12/12 07:43:02;;;;;;;1.87;1.77;;;3.40;99.90;;;;;;5051562;28;20209;-65
2021/12/12 07:45:29;;;;;;;1.70;1.60;;;3.40;99.90;;;;;;5048970;28;20764;-64
2021/12/12 07:47:57;;;;;;;1.60;1.50;;;3.50;99.90;;;;;;5048047;28;20205;-66
2021/12/12 07:50:27;;;;;;;1.48;1.38;;;3.50;99.90;;;;;;5049172;28;20236;-64
2021/12/12 07:52:56;;;;;;;1.43;1.40;;;3.50;99.90;;;;;;5051935;28;20224;-67
2021/12/12 07:55:24;;;;;;;1.40;1.37;;;3.60;99.90;;;;;;5043244;28;20726;-67
2021/12/12 07:57:51;;;;;;;1.20;1.20;;;3.60;99.90;;;;;;5035228;28;20236;-68
2021/12/12 08:00:21;;;;;;;1.47;1.37;;;3.60;99.90;;;;;;5034400;28;20208;-68
2021/12/12 08:02:49;;;;;;;1.40;1.30;;;3.60;99.90;;;;;;5032428;28;20291;-67
2021/12/12 08:05:18;;;;;;;1.20;1.20;;;3.60;99.90;;;;;;5034470;28;20228;-66
2021/12/12 08:07:46;;;;;;;1.60;1.50;;;3.70;99.90;;;;;;5033711;28;20292;-69
2021/12/12 08:10:17;;;;;;;1.30;1.30;;;3.70;99.90;;;;;;5034281;28;20295;-67
2021/12/12 08:12:44;;;;;;;1.13;1.13;;;3.70;99.90;;;;;;5033741;28;20282;-68
2021/12/12 08:15:13;;;;;;;1.20;1.20;;;3.80;99.90;;;;;;5041485;28;20284;-67
2021/12/12 08:17:43;;;;;;;1.13;1.10;;;3.80;99.90;;;;;;5048756;28;20205;-67
2021/12/12 08:20:13;;;;;;;1.10;1.10;;;3.80;99.90;;;;;;5048454;28;20193;-67
2021/12/12 08:22:41;;;;;;;1.13;1.10;;;3.90;99.90;;;;;;5049967;28;20213;-67
2021/12/12 08:25:11;;;;;;;1.10;1.10;;;3.90;99.90;;;;;;5049528;28;20288;-67
2021/12/12 08:27:39;;;;;;;1.03;1.03;;;3.90;99.90;;;;;;5035693;28;20201;-68
2021/12/12 08:30:08;;;;;;;1.07;1.07;;;4.00;99.90;;;;;;5032736;28;20291;-67
2021/12/12 08:32:36;;;;;;;1.00;1.00;;;4.10;99.90;;;;;;5032570;28;20690;-68
2021/12/12 08:35:03;;;;;;;1.07;1.07;;;4.10;99.90;;;;;;5032429;28;20225;-67
2021/12/12 08:37:31;;;;;;;1.13;1.13;;;4.10;99.90;;;;;;5031949;28;20250;-67
2021/12/12 08:40:04;;;;;;;1.27;1.20;;;4.20;99.90;;;;;;5032488;28;20768;-67
2021/12/12 08:42:31;;;;;;;1.13;1.13;;;4.20;99.90;;;;;;5032448;28;20287;-70
2021/12/12 08:45:00;;;;;;;1.10;1.10;;;4.30;99.90;;;;;;5032473;28;20303;-66
2021/12/12 08:47:27;;;;;;;1.13;1.13;;;4.30;99.90;;;;;;5038269;28;20235;-68
2021/12/12 08:49:55;;;;;;;1.10;1.10;;;4.40;99.90;;;;;;5048056;28;20224;-68
2021/12/12 08:52:27;;;;;;;1.30;1.30;;;4.40;99.90;;;;;;5051083;28;20228;-66
2021/12/12 08:54:54;;;;;;;1.00;1.00;;;4.50;99.90;;;;;;5038648;28;20263;-66
2021/12/12 08:57:32;;;;;;;0.90;0.90;;;4.50;99.90;;;;;;5034870;28;20201;-66
2021/12/12 09:00:03;;;;;;;1.00;1.00;;;4.50;99.90;;;;;;5034387;28;20232;-68
2021/12/12 09:02:31;;;;;;;0.90;0.90;;;4.40;99.90;;;;;;5036064;28;20514;-68
2021/12/12 09:05:02;;;;;;;1.43;1.33;;;4.50;99.90;;;;;;5036472;28;20207;-66
2021/12/12 09:07:34;;;;;;;1.47;1.40;;;4.50;99.90;;;;;;5035791;28;20229;-66
2021/12/12 09:10:07;;;;;;;1.20;1.17;;;4.50;99.90;;;;;;5035463;28;20570;-67
2021/12/12 09:12:37;;;;;;;1.03;1.03;;;4.60;99.90;;;;;;5035380;28;20635;-69
2021/12/12 09:15:13;;;;;;;1.13;1.13;;;4.60;99.90;;;;;;5034868;28;20220;-67
2021/12/12 09:17:44;;;;;;;1.17;1.17;;;4.70;99.90;;;;;;5033564;28;20215;-67
2021/12/12 09:20:19;;;;;;;1.10;1.10;;;4.80;99.90;;;;;;5035807;28;20211;-66
2021/12/12 09:22:56;;;;;;;1.10;1.10;;;4.80;99.90;;;;;;5035652;28;20202;-67
2021/12/12 09:25:34;;;;;;;1.00;1.00;;;4.80;99.90;;;;;;5034139;28;20234;-67
2021/12/12 09:28:08;;;;;;;1.10;1.10;;;4.90;99.90;;;;;;5035542;28;20264;-68
2021/12/12 09:30:37;;;;;;;1.00;1.00;;;5.00;99.90;;;;;;5031931;28;20289;-66
2021/12/12 09:33:12;;;;;;;1.00;1.00;;;5.10;99.90;;;;;;5034917;28;20288;-67
2021/12/12 09:35:44;;;;;;;1.10;1.10;;;5.20;99.90;;;;;;5034634;28;20662;-67
2021/12/12 09:38:16;;;;;;;1.00;1.00;;;5.20;99.90;;;;;;5032833;28;20284;-68
2021/12/12 09:41:11;;;;;;;1.00;1.00;;;5.30;99.90;;;;;;5025691;28;20769;-67
2021/12/12 09:43:56;;;;;;;0.90;0.90;;;5.30;99.90;;;;;;5027037;28;20265;-67
2021/12/12 09:46:44;;;;;;;1.00;1.00;;;5.40;99.90;;;;;;5024944;28;20375;-68
2021/12/12 09:52:43;;;;;;;1.00;1.00;;;5.60;99.90;;;;;;5031974;28;20200;-68
2021/12/12 09:55:12;;;;;;;1.00;1.00;;;5.60;99.90;;;;;;5033387;28;20264;-67
2021/12/12 09:57:44;;;;;;;1.00;1.00;;;5.70;99.90;;;;;;5029785;28;20251;-68
2021/12/12 10:00:16;;;;;;;0.93;0.93;;;5.70;99.90;;;;;;5025302;28;20675;-68
2021/12/12 10:03:11;;;;;;;0.90;0.90;;;5.80;99.90;;;;;;5029408;28;20283;-68
2021/12/12 10:05:51;;;;;;;1.00;1.00;;;5.90;99.90;;;;;;5027131;28;20221;-67
2021/12/12 10:08:27;;;;;;;1.00;1.00;;;5.90;99.90;;;;;;5023117;28;20208;-66
2021/12/12 10:10:59;;;;;;;1.30;1.20;;;6.00;99.90;;;;;;5024161;28;20294;-68
2021/12/12 10:13:32;;;;;;;0.60;0.60;;;6.00;99.90;;;;;;5024170;28;20228;-67
2021/12/12 10:16:04;;;;;;;0.80;0.80;;;6.00;99.90;;;;;;5025215;28;20248;-66
2021/12/12 10:18:42;;;;;;;0.97;0.97;;;6.00;99.90;;;;;;5025197;28;20771;-69
2021/12/12 10:21:13;;;;;;;0.80;0.80;;;6.10;99.90;;;;;;5031688;28;20639;-68
2021/12/12 10:23:51;;;;;;;0.90;0.90;;;6.10;99.90;;;;;;5026327;28;20339;-68
2021/12/12 10:26:24;;;;;;;0.77;0.77;;;6.20;99.90;;;;;;5025493;28;20225;-67
2021/12/12 10:28:54;;;;;;;0.80;0.80;;;6.30;99.90;;;;;;5022950;28;20197;-66
2021/12/12 10:31:28;;;;;;;0.73;0.73;;;6.40;99.90;;;;;;5024963;28;20222;-68
2021/12/12 10:34:00;;;;;;;0.73;0.73;;;6.40;99.90;;;;;;5022210;28;20639;-68
2021/12/12 10:36:33;;;;;;;0.80;0.80;;;6.60;99.90;;;;;;5021968;28;20218;-68
2021/12/12 10:39:05;;;;;;;1.03;1.00;;;6.70;99.90;;;;;;5024488;28;20208;-66
2021/12/12 10:41:38;;;;;;;0.73;0.73;;;6.50;99.90;;;;;;5024541;28;20193;-68
2021/12/12 10:44:12;;;;;;;0.73;0.73;;;6.60;99.90;;;;;;5024272;28;20208;-67
2021/12/12 10:46:47;;;;;;;0.77;0.77;;;6.60;99.90;;;;;;5023580;28;20255;-68
2021/12/12 10:49:23;;;;;;;0.90;0.90;;;6.60;99.90;;;;;;5024140;28;20212;-67
2021/12/12 10:51:55;;;;;;;0.90;0.90;;;6.60;99.90;;;;;;5024231;28;20223;-68
2021/12/12 10:54:29;;;;;;;0.70;0.70;;;6.70;99.90;;;;;;5022023;28;20831;-67
2021/12/12 10:57:02;;;;;;;1.00;1.00;;;6.70;99.90;;;;;;5025380;28;20275;-67
2021/12/12 10:59:34;;;;;;;1.10;1.10;;;6.80;99.90;;;;;;5023853;28;20299;-68
2021/12/12 11:02:04;;;;;;;0.90;0.90;;;6.90;99.90;;;;;;5024528;28;20625;-67
2021/12/12 11:04:40;;;;;;;0.70;0.70;;;7.00;99.90;;;;;;5024083;28;20221;-67
2021/12/12 11:07:11;;;;;;;1.00;1.00;;;7.00;99.90;;;;;;5022842;28;20619;-68
2021/12/12 11:09:43;;;;;;;0.80;0.80;;;7.00;99.90;;;;;;5024536;28;20284;-67
2021/12/12 11:12:17;;;;;;;0.93;0.93;;;7.00;99.90;;;;;;5022318;28;20220;-67
2021/12/12 11:14:54;;;;;;;0.70;0.70;;;7.00;99.90;;;;;;5023453;28;20603;-68
2021/12/12 11:17:27;;;;;;;0.97;0.97;;;7.00;99.90;;;;;;5023535;28;20254;-67
2021/12/12 11:20:01;;;;;;;0.77;0.77;;;7.00;99.90;;;;;;5023409;28;20219;-67
2021/12/12 11:22:34;;;;;;;1.00;1.00;;;7.00;99.90;;;;;;5021351;28;20271;-67
2021/12/12 11:25:07;;;;;;;0.87;0.87;;;7.00;99.90;;;;;;5024522;28;20308;-68
2021/12/12 11:27:37;;;;;;;0.70;0.70;;;7.00;99.90;;;;;;5023285;28;20276;-67
2021/12/12 11:30:10;;;;;;;0.80;0.80;;;7.10;99.90;;;;;;5025267;28;20251;-67
2021/12/12 11:32:38;;;;;;;0.90;0.90;;;7.10;99.90;;;;;;5033033;28;20192;-67
2021/12/12 11:35:10;;;;;;;0.80;0.80;;;7.20;99.90;;;;;;5033175;28;20247;-67
2021/12/12 11:37:41;;;;;;;0.80;0.80;;;7.10;99.90;;;;;;5030594;28;20228;-68
2021/12/12 11:40:19;;;;;;;0.80;0.80;;;7.20;99.90;;;;;;5030862;28;20591;-67
2021/12/12 11:42:52;;;;;;;1.23;0.80;;;7.20;99.90;;;;;;5031662;28;20189;-67
2021/12/12 11:45:25;;;;;;;0.77;0.77;;;7.30;99.90;;;;;;5030668;28;20230;-68
2021/12/12 11:48:08;;;;;;;0.60;0.60;;;7.40;99.90;;;;;;5032363;28;20188;-66
2021/12/12 11:50:46;;;;;;;0.63;0.63;;;7.40;99.90;;;;;;5032389;28;20564;-67
2021/12/12 11:53:17;;;;;;;0.80;0.80;;;7.50;99.90;;;;;;5032364;28;20205;-67
2021/12/12 11:55:47;;;;;;;0.73;0.73;;;7.60;99.90;;;;;;5031823;28;20264;-66
2021/12/12 11:58:25;;;;;;;0.70;0.70;;;7.60;99.90;;;;;;5014721;28;20304;-67
2021/12/12 12:01:02;;;;;;;0.70;0.70;;;7.70;99.90;;;;;;5012748;28;20296;-66
2021/12/12 12:03:39;;;;;;;0.63;0.63;;;7.70;99.90;;;;;;5012575;28;20644;-67
2021/12/12 12:06:21;;;;;;;0.70;0.70;;;7.70;99.90;;;;;;5017392;28;20239;-66
2021/12/12 12:09:05;;;;;;;0.60;0.60;;;7.80;99.90;;;;;;5017587;28;20197;-68
2021/12/12 12:11:55;;;;;;;0.70;0.70;;;7.80;99.90;;;;;;5012673;28;20290;-66
2021/12/12 12:14:28;;;;;;;0.50;0.50;;;7.80;99.90;;;;;;5013257;28;20271;-66
2021/12/12 12:16:58;;;;;;;0.50;0.50;;;7.80;99.90;;;;;;5013026;28;20229;-66
2021/12/12 12:19:36;;;;;;;0.87;0.87;;;7.80;99.90;;;;;;5012981;28;20221;-68
2021/12/12 12:22:19;;;;;;;0.70;0.70;;;7.80;99.90;;;;;;5013228;28;20201;-69
2021/12/12 12:25:01;;;;;;;0.60;0.60;;;7.80;99.90;;;;;;5020241;28;20235;-67
2021/12/12 12:27:35;;;;;;;0.73;0.73;;;7.80;99.90;;;;;;5036033;28;20205;-67
2021/12/12 12:30:34;;;;;;;0.57;0.57;;;7.80;99.90;;;;;;5038107;28;20189;-67
2021/12/12 12:33:57;;;;;;;0.63;0.63;;;7.80;99.90;;;;;;5036532;28;20204;-67
2021/12/12 12:37:15;;;;;;;0.60;0.60;;;7.80;99.90;;;;;;5035424;28;20255;-66
2021/12/12 12:40:18;;;;;;;0.60;0.60;;;7.90;99.90;;;;;;5036106;28;20224;-67
2021/12/12 12:43:25;;;;;;;0.57;0.57;;;8.10;99.90;;;;;;5036791;28;20281;-67
2021/12/12 12:46:25;;;;;;;0.60;0.60;;;8.00;99.90;;;;;;5035120;28;20295;-66
2021/12/12 12:49:22;;;;;;;0.57;0.57;;;8.00;99.90;;;;;;5032926;28;20201;-67
2021/12/12 12:52:29;;;;;;;0.50;0.50;;;8.00;99.90;;;;;;5031196;28;20287;-67
2021/12/12 12:55:41;;;;;;;0.50;0.50;;;8.00;99.90;;;;;;5033235;28;20199;-68
2021/12/12 12:58:22;;;;;;;0.70;0.70;;;8.00;99.90;;;;;;4980792;28;20246;-67
2021/12/12 13:00:52;;;;;;;0.40;0.40;;;8.00;99.90;;;;;;5023920;28;20304;-69
2021/12/12 13:03:29;;;;;;;0.60;0.60;;;8.00;99.90;;;;;;5034285;28;20280;-68
2021/12/12 13:06:33;;;;;;;0.70;0.70;;;8.00;99.90;;;;;;5035093;28;20299;-68
2021/12/12 13:09:29;;;;;;;0.50;0.50;;;8.00;99.90;;;;;;5032688;28;20632;-68
2021/12/12 13:12:28;;;;;;;0.47;0.47;;;8.00;99.90;;;;;;5030453;28;20243;-66
2021/12/12 13:15:03;;;;;;;0.50;0.50;;;7.90;99.90;;;;;;5015932;28;20192;-67
2021/12/12 13:17:41;;;;;;;0.70;0.70;;;7.80;99.90;;;;;;5024153;28;20279;-68
2021/12/12 13:20:28;;;;;;;0.50;0.50;;;7.80;99.90;;;;;;5025335;28;20209;-68
2021/12/12 13:23:09;;;;;;;0.60;0.60;;;7.80;99.90;;;;;;5029721;28;20189;-68
2021/12/12 13:25:42;;;;;;;0.60;0.60;;;7.80;99.90;;;;;;5028708;28;20235;-68
2021/12/12 13:28:18;;;;;;;0.70;0.70;;;7.80;99.90;;;;;;5027757;28;20209;-68
2021/12/12 13:30:59;;;;;;;0.53;0.53;;;7.80;99.90;;;;;;5025945;28;20248;-67
2021/12/12 13:33:34;;;;;;;0.53;0.53;;;7.80;99.90;;;;;;5025438;28;20209;-68
2021/12/12 13:36:26;;;;;;;0.60;0.60;;;7.90;99.90;;;;;;5022056;28;20220;-68
2021/12/12 13:39:06;;;;;;;0.70;0.70;;;7.90;99.90;;;;;;5025664;28;20674;-66
2021/12/12 13:41:47;;;;;;;0.33;0.33;;;8.00;99.90;;;;;;5023289;28;20228;-67
2021/12/12 13:44:25;;;;;;;0.50;0.50;;;8.00;99.90;;;;;;5026283;28;20678;-68